Latest Coastal Weather Observations for Double Island Point

IDQ60701

Issued at 3:12 am EST Tuesday 19 October 2021 (issued every 10 minutes, with the page automatically refreshed every 10 minutes)

About coastal observations | Map of coastal stations | Coastal observations for QLD | Marine services | Other Formats
Station Details ID: 040068 Name: DOUBLE ISLAND POINT LIGHTHOUSE Lat: -25.93 Lon: 153.19 Height: 95.64 m
Data from the previous 72 hours. | See also: Recent months at Double Island Point
Date/Time
EST
Wind Sea
Height
m
Swell Vis
km
Cloud Weather Temp
°C
Press
MSL
hPa
Rain since
9am
mm
Dir  Spd
kts
Gust
kts
Height
m
Period
s
Dir
19/03:00am WSW 5 7 - - - - - - - 17.9 1013.9 0.0
19/02:30am CALM 0 0 - - - - - - - 18.5 1014.1 0.0
19/02:00am WSW 3 5 - - - - - - - 18.8 1014.3 0.0
19/01:30am NW 6 7 - - - - - - - 18.9 1014.8 0.0
19/01:00am W 4 5 - - - - - - - 18.8 1015.1 0.0
19/12:30am W 2 4 - - - - - - - 18.7 1015.4 0.0
19/12:00am CALM 0 3 - - - - - - - 19.0 1015.9 0.0
 
Date/Time
EST
Wind Sea
Height
m
Swell Vis
km
Cloud Weather Temp
°C
Press
MSL
hPa
Rain since
9am
mm
Dir  Spd
kts
Gust
kts
Height
m
Period
s
Dir
18/11:30pm W 6 9 - - - - - - - 19.3 1016.4 0.0
18/11:00pm NNW 7 11 - - - - - - - 20.0 1016.7 0.0
18/10:30pm CALM 0 0 - - - - - - - 19.7 1016.7 0.0
18/10:00pm NNE 5 8 - - - - - - - 19.7 1016.3 0.0
18/09:30pm ENE 13 18 - - - - - - - 19.8 1015.3 0.0
18/09:00pm NE 4 9 - - - - - - - 19.4 1015.9 0.0
18/08:30pm NNE 1 6 - - - - - - - 19.1 1015.7 0.0
18/08:00pm CALM 0 2 - - - - - - - 19.0 1015.9 0.0
18/07:30pm SSE 5 7 - - - - - - - 18.8 1016.3 0.0
18/07:00pm S 10 14 - - - - - - - 19.5 1016.7 0.0
18/06:30pm S 13 18 - - - - - - - 19.6 1016.0 0.0
18/06:00pm SSW 7 11 - - - - - - - 19.8 1015.3 0.0
18/05:30pm WNW 15 18 - - - - - - - 20.0 1014.3 0.0
18/05:00pm WNW 10 16 - - - - - - - 20.0 1013.8 0.0
18/04:30pm CALM 0 5 - - - - - - - 21.5 1013.2 0.0
18/04:00pm WNW 1 5 - - - - - - - 22.0 1012.5 0.0
18/03:30pm WNW 1 5 - - - - - - - 22.2 1013.2 0.0
18/03:00pm CALM 0 3 - - - - - - - 21.0 1013.8 0.0
18/02:30pm NNW 7 17 - - - - - - - 20.5 1013.8 0.0
18/02:00pm NNE 5 8 - - - - - - - 20.2 1013.9 0.0
18/01:30pm NE 10 16 - - - - - - - 23.1 1014.3 0.0
18/01:00pm NE 7 13 - - - - - - - 23.1 1015.4 0.0
18/12:30pm ENE 9 13 - - - - - - - 23.3 1015.8 0.0
18/12:00pm ENE 9 12 - - - - - - - 24.1 1015.8 0.0
18/11:30am ENE 7 9 - - - - - - - 23.9 1016.6 0.0
18/11:00am E 6 7 - - - - - - - 24.1 1017.1 0.0
18/10:30am ENE 3 6 - - - - - - - 25.9 1017.5 0.0
18/10:00am ENE 1 4 - - - - - - - 25.0 1017.5 0.0
18/09:30am CALM 0 3 - - - - - - - 24.6 1017.5 0.0
18/09:00am ENE 7 9 - - - - - - - 24.0 1017.4 0.0
18/08:30am ENE 5 7 - - - - - - - 25.6 1017.0 0.0
18/08:00am ENE 4 5 - - - - - - - 24.7 1017.5 0.0
18/07:30am NNE 5 7 - - - - - - - 24.1 1017.4 0.0
18/07:00am NE 3 6 - - - - - - - 23.2 1017.1 0.0
18/06:30am NE 7 9 - - - - - - - 21.9 1016.6 0.0
18/06:00am NNE 9 10 - - - - - - - 21.3 1016.3 0.0
18/05:30am NE 9 12 - - - - - - - 21.0 1016.1 0.0
18/05:00am NE 9 14 - - - - - - - 20.9 1015.4 0.0
18/04:30am NNE 12 15 - - - - - - - 21.0 1015.5 0.0
18/04:00am NNE 11 13 - - - - - - - 21.0 1015.4 0.0
18/03:30am NNE 9 12 - - - - - - - 21.0 1015.1 0.0
18/03:00am NNE 8 10 - - - - - - - 21.0 1015.1 0.0
18/02:30am NNE 8 11 - - - - - - - 20.9 1015.1 0.0
18/02:00am NNE 9 11 - - - - - - - 20.7 1015.4 0.0
18/01:30am NNE 10 11 - - - - - - - 20.7 1015.6 0.0
18/01:00am NNE 10 12 - - - - - - - 20.7 1015.9 0.0
18/12:30am NE 9 12 - - - - - - - 20.8 1016.1 0.0
18/12:00am ENE 11 14 - - - - - - - 21.3 1016.2 0.0
 
Date/Time
EST
Wind Sea
Height
m
Swell Vis
km
Cloud Weather Temp
°C
Press
MSL
hPa
Rain since
9am
mm
Dir  Spd
kts
Gust
kts
Height
m
Period
s
Dir
17/11:30pm ENE 13 16 - - - - - - - 21.4 1016.3 0.0
17/11:00pm ENE 12 15 - - - - - - - 21.3 1016.2 0.0
17/10:30pm ENE 11 14 - - - - - - - 21.3 1016.4 0.0
17/10:00pm ENE 12 15 - - - - - - - 21.4 1016.4 0.0
17/09:30pm ENE 10 12 - - - - - - - 21.2 1016.5 0.0
17/09:00pm E 12 14 - - - - - - - 21.2 1016.3 0.0
17/08:30pm E 12 16 - - - - - - - 21.2 1016.0 0.0
17/08:00pm E 12 15 - - - - - - - 21.1 1015.6 0.0
17/07:30pm E 12 14 - - - - - - - 21.2 1015.1 0.0
17/07:00pm E 12 14 - - - - - - - 21.4 1014.7 0.0
17/06:30pm E 12 14 - - - - - - - 21.7 1014.4 0.0
17/06:00pm E 10 12 - - - - - - - 21.7 1013.8 0.0
17/05:30pm E 12 14 - - - - - - - 22.0 1013.1 0.0
17/05:00pm E 11 13 - - - - - - - 22.1 1012.7 0.0
17/04:30pm E 12 15 - - - - - - - 22.2 1012.3 0.0
17/04:00pm E 11 14 - - - - - - - 22.7 1012.2 0.0
17/03:30pm E 12 14 - - - - - - - 23.4 1012.1 0.0
17/03:00pm E 12 15 - - - - - - - 23.5 1012.2 0.0
17/02:30pm E 13 15 - - - - - - - 23.3 1012.4 0.0
17/02:00pm E 13 15 - - - - - - - 23.5 1012.6 0.0
17/01:30pm E 11 14 - - - - - - - 25.2 1012.9 0.0
17/01:00pm ESE 11 13 - - - - - - - 24.5 1013.1 0.0
17/12:30pm ESE 10 12 - - - - - - - 25.0 1013.6 0.0
17/12:00pm ESE 10 11 - - - - - - - 24.7 1014.2 0.0
17/11:30am ESE 9 10 - - - - - - - 24.4 1014.8 0.0
17/11:00am SSE 10 12 - - - - - - - 24.2 1015.0 0.0
17/10:30am SSE 10 11 - - - - - - - 24.9 1015.3 0.0
17/10:00am SSE 10 12 - - - - - - - 24.2 1015.4 0.0
17/09:30am S 10 13 - - - - - - - 24.0 1015.5 0.0
17/09:00am S 13 15 - - - - - - - 22.8 1015.3 0.0
17/08:30am S 13 16 - - - - - - - 22.6 1015.2 0.0
17/08:00am S 13 14 - - - - - - - 22.3 1015.1 0.0
17/07:30am S 12 14 - - - - - - - 21.9 1014.8 0.0
17/07:00am S 9 11 - - - - - - - 21.9 1014.6 0.0
17/06:30am SSW 5 8 - - - - - - - 21.9 1014.3 0.0
17/06:00am WNW 7 8 - - - - - - - 20.5 1014.0 0.0
17/05:30am WNW 8 10 - - - - - - - 20.1 1013.5 0.0
17/05:00am WNW 8 11 - - - - - - - 20.1 1013.2 0.0
17/04:30am WNW 10 13 - - - - - - - 20.1 1012.8 0.0
17/04:00am W 7 11 - - - - - - - 19.9 1012.6 0.0
17/03:30am WNW 8 11 - - - - - - - 19.8 1012.3 0.0
17/03:00am WNW 10 12 - - - - - - - 19.6 1011.9 0.0
17/02:30am NW 10 12 - - - - - - - 19.4 1012.0 0.0
17/02:00am WNW 9 11 - - - - - - - 19.7 1011.9 0.0
17/01:30am WNW 10 12 - - - - - - - 19.7 1011.9 0.0
17/01:00am NW 9 11 - - - - - - - 19.8 1011.9 0.0
17/12:30am NNW 10 11 - - - - - - - 19.8 1012.0 0.0
17/12:00am NNW 9 10 - - - - - - - 19.8 1012.2 0.0
 
Date/Time
EST
Wind Sea
Height
m
Swell Vis
km
Cloud Weather Temp
°C
Press
MSL
hPa
Rain since
9am
mm
Dir  Spd
kts
Gust
kts
Height
m
Period
s
Dir
16/11:30pm NNW 8 10 - - - - - - - 19.8 1012.4 0.0
16/11:00pm NNW 8 11 - - - - - - - 19.9 1012.5 0.0
16/10:30pm NNW 7 9 - - - - - - - 19.8 1012.5 0.0
16/10:00pm NNW 5 9 - - - - - - - 19.9 1012.3 0.0
16/09:30pm N 3 12 - - - - - - - 20.3 1012.1 0.0
16/09:00pm CALM 0 3 - - - - - - - 20.7 1011.7 0.0
16/08:30pm CALM 0 2 - - - - - - - 20.8 1011.4 0.0
16/08:00pm CALM 0 3 - - - - - - - 20.8 1011.0 0.0
16/07:30pm CALM 0 4 - - - - - - - 21.0 1010.6 0.0
16/07:00pm N 1 8 - - - - - - - 20.9 1010.2 0.0
16/06:30pm N 3 9 - - - - - - - 21.2 1009.7 0.0
16/06:00pm N 9 15 - - - - - - - 21.4 1009.1 0.0
16/05:30pm NNE 14 17 - - - - - - - 22.3 1008.8 0.0
16/05:00pm NNE 13 16 - - - - - - - 23.0 1008.3 0.0
16/04:30pm NNE 12 17 - - - - - - - 23.6 1008.1 0.0
16/04:00pm NNE 11 16 - - - - - - - 24.3 1007.9 0.0
16/03:30pm NE 9 14 - - - - - - - 25.2 1007.9 0.0
16/03:00pm NE 7 12 - - - - - - - 25.3 1007.9 0.0
16/02:30pm ENE 10 14 - - - - - - - 23.6 1008.0 0.0
16/02:00pm ENE 10 14 - - - - - - - 23.5 1008.0 0.0
16/01:30pm ENE 11 15 - - - - - - - 23.7 1008.2 0.0
16/01:00pm ENE 10 14 - - - - - - - 24.0 1008.6 0.0
16/12:30pm ENE 10 12 - - - - - - - 23.8 1009.2 0.0
16/12:00pm ENE 9 13 - - - - - - - 24.1 1009.5 0.0
16/11:30am ENE 10 13 - - - - - - - 24.3 1009.8 0.0
16/11:00am ENE 8 10 - - - - - - - 24.1 1010.2 0.0
16/10:30am ENE 7 9 - - - - - - - 24.1 1010.5 0.0
16/10:00am SSE 6 11 - - - - - - - 24.1 1010.8 0.0
16/09:30am SSE 6 8 - - - - - - - 23.1 1011.0 0.0
16/09:00am S 6 9 - - - - - - - 22.9 1011.0 9.8
16/08:30am SSW 8 12 - - - - - - - 23.0 1011.1 9.8
16/08:00am SW 10 14 - - - - - - - 21.4 1011.1 9.8
16/07:30am WSW 5 8 - - - - - - - 21.3 1010.9 9.8
16/07:00am SW 10 13 - - - - - - - 20.5 1010.5 9.8
16/06:30am W 9 11 - - - - - - - 19.7 1010.0 9.8
16/06:00am WSW 9 11 - - - - - - - 20.1 1009.7 9.8
16/05:30am SW 11 13 - - - - - - - 19.7 1009.3 9.8
16/05:00am SSW 10 11 - - - - - - - 19.5 1009.0 9.8
16/04:30am SSW 7 9 - - - - - - - 19.7 1008.9 9.8
16/04:00am SSW 13 15 - - - - - - - 19.7 1008.2 9.8
16/03:30am SSW 11 14 - - - - - - - 20.2 1008.0 9.8

Other formats

Comma delimited format used in spreadsheet applications
http://www.bom.gov.au/fwo/IDQ60701/IDQ60701.94584.axf

JavaScript Object Notation format (JSON) in row-major order
http://www.bom.gov.au/fwo/IDQ60701/IDQ60701.94584.json

Data quality

Most of these data are generated automatically and are frequently updated. Quality checks on data are not normally performed. It is possible for incorrect values to appear. Refer to information at About Latest Weather Observations and please check the disclaimer before using these data.